Time;durP1;ratioP1;P1;durP2;ratioP2;P2;SDS_P1;SDS_P2;PMS_P1;PMS_P2;Temp;Humidity;BMP_temperature;BMP_pressure;BME280_temperature;BME280_humidity;BME280_pressure;Samples;Min_cycle;Max_cycle;Signal;HPM_P1;HPM_P2
2023/02/01 00:00:30;;;;;;;14.10;8.23;;;2.40;99.90;;;;;;4998564;28;20227;-77
2023/02/01 00:02:57;;;;;;;15.80;9.20;;;2.40;99.90;;;;;;5016208;28;20196;-78
2023/02/01 00:05:24;;;;;;;15.20;8.20;;;2.40;99.90;;;;;;5016145;28;20546;-75
2023/02/01 00:07:50;;;;;;;15.40;8.10;;;2.40;99.90;;;;;;4998670;28;20196;-75
2023/02/01 00:10:18;;;;;;;12.47;7.63;;;2.40;99.90;;;;;;4998683;28;20788;-75
2023/02/01 00:12:45;;;;;;;14.87;7.93;;;2.40;99.90;;;;;;4998724;28;20574;-75
2023/02/01 00:15:12;;;;;;;14.33;8.03;;;2.40;99.90;;;;;;4998453;28;20232;-74
2023/02/01 00:17:39;;;;;;;14.47;7.73;;;2.40;99.90;;;;;;5016400;28;20210;-76
2023/02/01 00:20:06;;;;;;;13.50;7.73;;;2.40;99.90;;;;;;5015823;28;20239;-74
2023/02/01 00:22:33;;;;;;;12.97;7.47;;;2.40;99.90;;;;;;4998260;28;20211;-75
2023/02/01 00:25:00;;;;;;;13.87;7.70;;;2.50;99.90;;;;;;4998260;28;20215;-75
2023/02/01 00:27:26;;;;;;;12.13;6.83;;;2.50;99.90;;;;;;4998087;28;20208;-75
2023/02/01 00:29:56;;;;;;;13.37;7.20;;;2.60;99.90;;;;;;4997854;28;20207;-74
2023/02/01 00:32:23;;;;;;;11.37;6.83;;;2.60;99.90;;;;;;4998379;28;20196;-75
2023/02/01 00:34:50;;;;;;;8.60;5.60;;;2.70;99.90;;;;;;4997809;28;20253;-75
2023/02/01 00:37:17;;;;;;;7.00;4.90;;;2.80;99.90;;;;;;5015567;28;20225;-73
2023/02/01 00:39:44;;;;;;;8.47;5.03;;;2.80;99.90;;;;;;4998402;28;20203;-74
2023/02/01 00:42:10;;;;;;;7.37;4.77;;;2.90;99.90;;;;;;4998196;28;20249;-74
2023/02/01 00:44:37;;;;;;;7.67;4.83;;;2.90;99.90;;;;;;5015890;28;20214;-76
2023/02/01 00:47:04;;;;;;;8.23;5.00;;;3.00;99.90;;;;;;5000035;28;20280;-73
2023/02/01 00:49:31;;;;;;;7.00;4.57;;;3.00;99.90;;;;;;4999164;28;20196;-73
2023/02/01 00:51:58;;;;;;;7.00;4.70;;;3.00;99.90;;;;;;4981832;28;20208;-71
2023/02/01 00:54:25;;;;;;;10.00;5.23;;;3.10;99.90;;;;;;5015327;28;20216;-76
2023/02/01 00:56:51;;;;;;;8.63;4.63;;;3.00;99.90;;;;;;5015042;28;20212;-73
2023/02/01 00:59:18;;;;;;;8.10;4.80;;;3.10;99.90;;;;;;4997342;28;20215;-73
2023/02/01 01:01:45;;;;;;;7.30;4.57;;;3.10;99.90;;;;;;4997289;28;20196;-73
2023/02/01 01:04:12;;;;;;;7.07;4.40;;;3.10;99.90;;;;;;4997600;28;20262;-72
2023/02/01 01:06:39;;;;;;;7.33;4.00;;;3.10;99.90;;;;;;4996141;28;20209;-73
2023/02/01 01:09:07;;;;;;;6.60;3.80;;;3.10;99.90;;;;;;5014891;28;20199;-73
2023/02/01 01:11:36;;;;;;;7.57;3.73;;;3.10;99.90;;;;;;4997302;28;20678;-73
2023/02/01 01:14:04;;;;;;;7.90;3.10;;;3.10;99.90;;;;;;4996902;28;20194;-73
2023/02/01 01:16:32;;;;;;;5.47;2.43;;;3.00;99.90;;;;;;5014600;28;20211;-73
2023/02/01 01:19:00;;;;;;;4.53;2.20;;;3.00;99.90;;;;;;4997298;28;20215;-75
2023/02/01 01:21:27;;;;;;;3.67;1.90;;;2.90;99.90;;;;;;5014516;28;20257;-73
2023/02/01 01:23:54;;;;;;;4.67;1.80;;;2.90;99.90;;;;;;4997415;28;20196;-73
2023/02/01 01:26:24;;;;;;;4.50;1.50;;;2.90;99.90;;;;;;4997039;28;20200;-72
2023/02/01 01:28:51;;;;;;;4.23;1.63;;;2.90;99.90;;;;;;4996839;28;20291;-74
2023/02/01 01:31:19;;;;;;;4.07;1.70;;;2.80;99.90;;;;;;4997240;28;20220;-78
2023/02/01 01:33:52;;;;;;;5.73;1.60;;;2.80;99.90;;;;;;4996839;28;20642;-74
2023/02/01 01:36:20;;;;;;;3.43;1.63;;;2.90;99.90;;;;;;4996601;28;20217;-79
2023/02/01 01:38:50;;;;;;;5.47;1.70;;;2.90;99.90;;;;;;4981225;28;20202;-76
2023/02/01 01:41:20;;;;;;;5.57;2.10;;;2.90;99.90;;;;;;4996569;28;20214;-75
2023/02/01 01:43:54;;;;;;;4.40;2.00;;;2.90;99.90;;;;;;5014256;28;20192;-71
2023/02/01 01:46:24;;;;;;;6.93;1.90;;;2.90;99.90;;;;;;4996667;28;20336;-79
2023/02/01 01:49:18;;;;;;;5.77;2.00;;;2.90;99.90;;;;;;5014157;28;20714;-78
2023/02/01 01:51:57;;;;;;;8.17;2.50;;;3.00;99.90;;;;;;4934177;29;20225;-79
2023/02/01 01:54:46;;;;;;;6.07;1.77;;;3.00;99.90;;;;;;4934246;29;20202;-80
2023/02/01 01:57:27;;;;;;;6.93;2.10;;;2.90;99.90;;;;;;4918621;29;20237;-78
2023/02/01 02:00:07;;;;;;;5.30;2.30;;;2.90;99.90;;;;;;4918250;29;20227;-77
2023/02/01 02:02:36;;;;;;;4.90;1.80;;;2.90;99.90;;;;;;4934206;29;20206;-80
2023/02/01 02:05:04;;;;;;;8.43;2.10;;;2.90;99.90;;;;;;4934268;29;20213;-77
2023/02/01 02:07:36;;;;;;;8.13;2.37;;;2.90;99.90;;;;;;4918874;29;20604;-77
2023/02/01 02:10:10;;;;;;;6.63;2.23;;;2.90;99.90;;;;;;4917124;29;20187;-74
2023/02/01 02:12:40;;;;;;;9.83;2.40;;;2.90;99.90;;;;;;4902622;29;20199;-75
2023/02/01 02:15:09;;;;;;;9.33;2.50;;;2.90;99.90;;;;;;4933537;29;20202;-76
2023/02/01 02:17:54;;;;;;;5.83;2.30;;;2.90;99.90;;;;;;4924801;29;20226;-77
2023/02/01 02:20:45;;;;;;;7.23;2.73;;;2.90;99.90;;;;;;4914221;29;20203;-74
2023/02/01 02:23:11;;;;;;;10.43;2.57;;;2.90;99.90;;;;;;4899075;29;20233;-75
2023/02/01 02:26:02;;;;;;;7.07;2.10;;;2.90;99.90;;;;;;4919630;29;20206;-78
2023/02/01 02:29:07;;;;;;;8.77;2.50;;;2.90;99.90;;;;;;4948007;28;20218;-77
2023/02/01 02:31:43;;;;;;;9.17;2.57;;;2.90;99.90;;;;;;4997091;28;20212;-78
2023/02/01 02:34:34;;;;;;;7.03;2.70;;;2.90;99.90;;;;;;5013579;28;20657;-73
2023/02/01 02:37:19;;;;;;;7.60;2.23;;;2.90;99.90;;;;;;4995452;28;20684;-71
2023/02/01 02:40:08;;;;;;;10.87;2.80;;;2.90;99.90;;;;;;5013216;28;20271;-79
2023/02/01 02:48:38;;;;;;;8.77;2.57;;;2.90;99.90;;;;;;4995677;28;20192;-79
2023/02/01 03:05:33;;;;;;;8.27;2.57;;;2.90;99.90;;;;;;4995163;28;20207;-77
2023/02/01 03:08:00;;;;;;;8.93;2.40;;;2.80;99.90;;;;;;4995249;28;20204;-76
2023/02/01 03:10:40;;;;;;;11.50;2.40;;;2.80;99.90;;;;;;5013091;28;20192;-71
2023/02/01 03:13:35;;;;;;;12.23;2.40;;;2.90;99.90;;;;;;5012776;28;20199;-69
2023/02/01 03:16:23;;;;;;;8.20;2.33;;;2.90;99.90;;;;;;4994826;28;20208;-70
2023/02/01 03:19:03;;;;;;;5.33;1.80;;;2.90;99.90;;;;;;4993131;28;20201;-71
2023/02/01 03:21:37;;;;;;;5.77;2.07;;;2.90;99.90;;;;;;4993150;28;20200;-68
2023/02/01 03:24:10;;;;;;;8.17;2.20;;;2.90;99.90;;;;;;4975536;28;20649;-70
2023/02/01 03:26:43;;;;;;;8.60;1.97;;;2.90;99.90;;;;;;4993220;28;20567;-70
2023/02/01 03:29:22;;;;;;;8.53;2.30;;;2.90;99.90;;;;;;4975458;28;20260;-71
2023/02/01 03:31:48;;;;;;;11.60;2.30;;;2.80;99.90;;;;;;4975520;28;20215;-68
2023/02/01 03:34:16;;;;;;;8.67;2.10;;;2.80;99.90;;;;;;4992844;28;20193;-70
2023/02/01 03:36:50;;;;;;;6.77;2.07;;;2.90;99.90;;;;;;4991496;28;20224;-69
2023/02/01 03:39:25;;;;;;;12.70;2.67;;;2.80;99.90;;;;;;4975664;28;20192;-72
2023/02/01 03:42:14;;;;;;;14.37;2.87;;;2.70;99.90;;;;;;4975581;28;20203;-71
2023/02/01 03:44:53;;;;;;;9.30;2.50;;;2.60;99.90;;;;;;4975265;28;20219;-69
2023/02/01 03:47:24;;;;;;;9.53;2.47;;;2.60;99.90;;;;;;4991509;28;20200;-71
2023/02/01 03:49:57;;;;;;;9.60;2.30;;;2.60;99.90;;;;;;4975400;28;20211;-77
2023/02/01 03:52:38;;;;;;;10.43;2.30;;;2.70;99.90;;;;;;4975911;28;20207;-79
2023/02/01 03:55:06;;;;;;;13.47;2.90;;;2.70;99.90;;;;;;4975547;28;20203;-79
2023/02/01 03:57:38;;;;;;;9.80;2.30;;;2.70;99.90;;;;;;4992781;28;20243;-80
2023/02/01 04:00:18;;;;;;;12.97;2.60;;;2.70;99.90;;;;;;4975061;28;20220;-77
2023/02/01 04:02:46;;;;;;;7.63;2.90;;;2.70;99.90;;;;;;4992682;28;20264;-74
2023/02/01 04:05:13;;;;;;;8.87;2.60;;;2.80;99.90;;;;;;4992941;28;20662;-76
2023/02/01 04:07:40;;;;;;;10.13;2.23;;;2.80;99.90;;;;;;4992585;28;20296;-77
2023/02/01 04:10:09;;;;;;;8.77;2.30;;;2.80;99.90;;;;;;4992618;28;20223;-75
2023/02/01 04:12:36;;;;;;;14.37;2.67;;;2.80;99.90;;;;;;4992554;28;20272;-74
2023/02/01 04:15:03;;;;;;;11.67;2.80;;;2.80;99.90;;;;;;4975170;28;20207;-76
2023/02/01 04:17:30;;;;;;;10.53;2.37;;;2.80;99.90;;;;;;4975103;28;20231;-77
2023/02/01 04:19:57;;;;;;;7.57;2.40;;;2.80;99.90;;;;;;4991335;28;20197;-78
2023/02/01 04:22:24;;;;;;;8.03;2.70;;;2.80;99.90;;;;;;4975071;28;20201;-78
2023/02/01 04:24:51;;;;;;;7.67;2.10;;;2.90;99.90;;;;;;4992450;28;20193;-73
2023/02/01 04:27:18;;;;;;;10.93;2.20;;;2.90;99.90;;;;;;4974979;28;20296;-78
2023/02/01 04:29:45;;;;;;;8.80;2.23;;;2.90;99.90;;;;;;4974717;28;20208;-74
2023/02/01 04:32:12;;;;;;;7.67;2.20;;;2.90;99.90;;;;;;4974854;28;20603;-75
2023/02/01 04:34:38;;;;;;;11.90;2.50;;;3.00;99.90;;;;;;4992223;28;20205;-76
2023/02/01 04:37:05;;;;;;;11.50;2.23;;;3.00;99.90;;;;;;4992376;28;20304;-80
2023/02/01 04:39:32;;;;;;;10.10;2.53;;;2.90;99.90;;;;;;4974835;28;20200;-77
2023/02/01 04:41:59;;;;;;;12.03;2.40;;;2.90;99.90;;;;;;4975916;28;20204;-75
2023/02/01 04:44:26;;;;;;;12.53;2.17;;;3.00;99.90;;;;;;4995764;28;20200;-75
2023/02/01 04:46:53;;;;;;;16.27;2.10;;;3.00;99.90;;;;;;4978268;28;20229;-74
2023/02/01 04:49:21;;;;;;;14.20;2.23;;;3.00;99.90;;;;;;4978429;28;20192;-75
2023/02/01 04:51:48;;;;;;;13.27;2.17;;;2.90;99.90;;;;;;4978153;28;20229;-79
2023/02/01 04:54:15;;;;;;;10.50;2.17;;;3.00;99.90;;;;;;4995504;28;20193;-82
2023/02/01 04:56:42;;;;;;;11.37;2.30;;;3.00;99.90;;;;;;4978093;28;20216;-79
2023/02/01 04:59:11;;;;;;;8.40;2.07;;;3.00;99.90;;;;;;4977993;28;20219;-76
2023/02/01 05:01:38;;;;;;;7.87;2.10;;;3.00;99.90;;;;;;4978101;28;20199;-78
2023/02/01 05:04:05;;;;;;;8.20;2.10;;;3.00;99.90;;;;;;4978162;28;20196;-71
2023/02/01 05:06:31;;;;;;;8.27;2.07;;;3.10;99.90;;;;;;4994198;28;20933;-70
2023/02/01 05:08:58;;;;;;;14.10;2.63;;;3.10;99.90;;;;;;4995243;28;20204;-70
2023/02/01 05:14:11;;;;;;;6.17;1.77;;;3.10;99.90;;;;;;4977561;28;20208;-75
2023/02/01 05:16:38;;;;;;;8.57;2.33;;;3.10;99.90;;;;;;4977676;28;20228;-72
2023/02/01 05:19:04;;;;;;;10.17;2.17;;;3.10;99.90;;;;;;4977700;28;20210;-76
2023/02/01 05:21:31;;;;;;;11.00;2.10;;;3.10;99.90;;;;;;4977625;28;20205;-71
2023/02/01 05:24:12;;;;;;;12.40;2.50;;;3.10;99.90;;;;;;4977577;28;20232;-76
2023/02/01 05:26:43;;;;;;;9.03;2.10;;;3.10;99.90;;;;;;4977686;28;20677;-78
2023/02/01 05:29:10;;;;;;;10.50;2.20;;;3.10;99.90;;;;;;4977698;28;20195;-77
2023/02/01 05:31:37;;;;;;;9.03;1.87;;;3.10;99.90;;;;;;4993544;28;20209;-76
2023/02/01 05:34:04;;;;;;;9.77;1.97;;;3.20;99.90;;;;;;4977559;28;20563;-81
2023/02/01 05:36:31;;;;;;;11.57;2.00;;;3.20;99.90;;;;;;4977345;28;20220;-79
2023/02/01 05:38:58;;;;;;;9.40;2.30;;;3.10;99.90;;;;;;4977454;28;20197;-71
2023/02/01 05:41:28;;;;;;;10.67;2.37;;;3.10;99.90;;;;;;4993521;28;20188;-75
2023/02/01 05:43:55;;;;;;;11.07;2.47;;;3.10;99.90;;;;;;4977195;28;20211;-77
2023/02/01 05:46:22;;;;;;;11.03;2.27;;;3.10;99.90;;;;;;4976953;28;20236;-75
2023/02/01 05:48:49;;;;;;;8.37;2.07;;;3.10;99.90;;;;;;4977215;28;20204;-75
2023/02/01 05:51:16;;;;;;;7.10;2.30;;;3.10;99.90;;;;;;4994359;28;20201;-76
2023/02/01 05:53:43;;;;;;;8.27;2.33;;;3.10;99.90;;;;;;4994473;28;20204;-80
2023/02/01 05:56:10;;;;;;;10.87;2.57;;;3.10;99.90;;;;;;4994454;28;20192;-80
2023/02/01 05:58:37;;;;;;;11.53;2.60;;;3.10;99.90;;;;;;4994589;28;20559;-80
2023/02/01 06:01:04;;;;;;;8.20;2.10;;;3.00;99.90;;;;;;4976783;28;20229;-78
2023/02/01 06:03:31;;;;;;;12.63;2.40;;;2.90;99.90;;;;;;4976790;28;20216;-80
2023/02/01 06:05:58;;;;;;;7.13;2.20;;;3.00;99.90;;;;;;4993034;28;20204;-73
2023/02/01 06:08:25;;;;;;;9.17;2.40;;;3.00;99.90;;;;;;4976812;28;20217;-77
2023/02/01 06:11:03;;;;;;;8.90;2.20;;;3.00;99.90;;;;;;4994051;28;20243;-81
2023/02/01 06:13:31;;;;;;;12.50;2.40;;;3.00;99.90;;;;;;4976513;28;20204;-80
2023/02/01 06:16:02;;;;;;;10.80;2.30;;;3.00;99.90;;;;;;4976633;28;20200;-77
2023/02/01 06:18:30;;;;;;;9.90;2.30;;;3.00;99.90;;;;;;4976834;28;20224;-81
2023/02/01 06:21:02;;;;;;;9.77;2.87;;;3.00;99.90;;;;;;4994009;28;20196;-80
2023/02/01 06:23:30;;;;;;;10.03;2.50;;;3.00;99.90;;;;;;4976287;28;20208;-77
2023/02/01 06:26:03;;;;;;;9.23;2.90;;;3.00;99.90;;;;;;4994282;28;20203;-78
2023/02/01 06:28:31;;;;;;;12.30;2.90;;;3.10;99.90;;;;;;4976401;28;20192;-80
2023/02/01 06:31:02;;;;;;;13.17;2.57;;;3.10;99.90;;;;;;4976282;28;20201;-76
2023/02/01 06:33:29;;;;;;;9.13;2.43;;;3.10;99.90;;;;;;4996756;28;20199;-69
2023/02/01 06:35:58;;;;;;;8.20;2.23;;;3.10;99.90;;;;;;4995403;28;20208;-77
2023/02/01 06:38:26;;;;;;;9.40;2.27;;;3.10;99.90;;;;;;4995294;28;20219;-74
2023/02/01 06:40:54;;;;;;;11.27;2.10;;;3.10;99.90;;;;;;4995896;28;20226;-75
2023/02/01 06:43:23;;;;;;;9.93;2.10;;;3.10;99.90;;;;;;4995299;28;20203;-77
2023/02/01 06:45:50;;;;;;;12.40;2.00;;;3.10;99.90;;;;;;4995058;28;20583;-79
2023/02/01 06:48:18;;;;;;;11.10;2.20;;;3.10;99.90;;;;;;4995398;28;20200;-80
2023/02/01 06:50:45;;;;;;;6.77;2.00;;;3.10;99.90;;;;;;4995146;28;20751;-79
2023/02/01 06:53:11;;;;;;;9.37;2.37;;;3.10;99.90;;;;;;5012782;28;20235;-79
2023/02/01 06:55:38;;;;;;;10.03;2.37;;;3.20;99.90;;;;;;4995277;28;20235;-76
2023/02/01 06:58:05;;;;;;;9.73;2.27;;;3.20;99.90;;;;;;4995366;28;20251;-80
2023/02/01 07:00:32;;;;;;;6.93;1.73;;;3.30;99.90;;;;;;4995318;28;20235;-78
2023/02/01 07:02:59;;;;;;;12.53;2.10;;;3.30;99.90;;;;;;4994988;28;20269;-77
2023/02/01 07:05:26;;;;;;;9.43;2.30;;;3.30;99.90;;;;;;5011805;28;20185;-68
2023/02/01 07:07:53;;;;;;;9.97;1.90;;;3.40;99.90;;;;;;4994802;28;20197;-68
2023/02/01 07:10:20;;;;;;;9.40;2.13;;;3.30;99.90;;;;;;4994789;28;20250;-68
2023/02/01 07:12:47;;;;;;;10.93;2.23;;;3.40;99.90;;;;;;4994910;28;20196;-69
2023/02/01 07:15:14;;;;;;;10.00;2.10;;;3.40;99.90;;;;;;4978457;28;20533;-68
2023/02/01 07:17:41;;;;;;;11.83;2.40;;;3.40;99.90;;;;;;5012311;28;20218;-82
2023/02/01 07:20:08;;;;;;;13.23;2.27;;;3.40;99.90;;;;;;4995160;28;20188;-79
2023/02/01 07:22:35;;;;;;;10.10;2.10;;;3.40;99.90;;;;;;4994908;28;20199;-82
2023/02/01 07:25:02;;;;;;;5.77;2.10;;;3.40;99.90;;;;;;5012473;28;20199;-78
2023/02/01 07:27:34;;;;;;;11.87;2.40;;;3.40;99.90;;;;;;4994786;28;20200;-79
2023/02/01 07:30:02;;;;;;;9.60;2.00;;;3.40;99.90;;;;;;4994644;28;20199;-77
2023/02/01 07:32:29;;;;;;;10.90;2.60;;;3.40;99.90;;;;;;4995273;28;20230;-80
2023/02/01 07:34:57;;;;;;;8.57;2.30;;;3.40;99.90;;;;;;4994843;28;20645;-82
2023/02/01 07:37:24;;;;;;;8.60;2.20;;;3.40;99.90;;;;;;4994794;28;20228;-79
2023/02/01 07:39:51;;;;;;;10.67;2.40;;;3.50;99.90;;;;;;5012557;28;20548;-69
2023/02/01 07:42:24;;;;;;;9.23;2.23;;;3.50;99.90;;;;;;5012651;28;20216;-82
2023/02/01 07:44:51;;;;;;;9.47;2.30;;;3.50;99.90;;;;;;4994407;28;20231;-73
2023/02/01 07:47:18;;;;;;;11.23;2.30;;;3.50;99.90;;;;;;4995123;28;20192;-69
2023/02/01 07:49:45;;;;;;;14.00;2.60;;;3.60;99.90;;;;;;4994729;28;20562;-69
2023/02/01 07:52:15;;;;;;;12.07;2.20;;;3.60;99.90;;;;;;4994479;28;20653;-71
2023/02/01 07:54:43;;;;;;;11.17;2.13;;;3.60;99.90;;;;;;4994986;28;20193;-79
2023/02/01 07:57:11;;;;;;;8.27;2.10;;;3.60;99.90;;;;;;4994424;28;20262;-80
2023/02/01 08:01:19;;;;;;;8.27;2.60;;;3.60;99.90;;;;;;5011804;28;20515;-82
2023/02/01 08:02:28;;;;;;;10.97;2.67;;;3.50;99.90;;;;;;5010950;28;20644;-80
2023/02/01 08:04:55;;;;;;;8.77;2.27;;;3.50;99.90;;;;;;4994434;28;20639;-81
2023/02/01 08:07:22;;;;;;;11.03;2.27;;;3.50;99.90;;;;;;4994684;28;20308;-82
2023/02/01 08:09:48;;;;;;;12.20;2.30;;;3.50;99.90;;;;;;4994842;28;20205;-81
2023/02/01 08:12:15;;;;;;;12.17;2.70;;;3.50;99.90;;;;;;5011951;28;20189;-82
2023/02/01 08:14:42;;;;;;;14.30;2.63;;;3.50;99.90;;;;;;4994368;28;20212;-81
2023/02/01 08:17:09;;;;;;;17.13;2.60;;;3.50;99.90;;;;;;4997113;28;20226;-83
2023/02/01 08:19:36;;;;;;;12.13;2.50;;;3.50;99.90;;;;;;4998400;28;20291;-81
2023/02/01 08:22:06;;;;;;;8.37;2.07;;;3.50;99.90;;;;;;4998257;28;20200;-79
2023/02/01 08:24:33;;;;;;;11.10;2.47;;;3.50;99.90;;;;;;5016049;28;20200;-79
2023/02/01 08:27:02;;;;;;;8.67;2.20;;;3.50;99.90;;;;;;5016217;28;20215;-82
2023/02/01 08:29:29;;;;;;;12.43;2.63;;;3.50;99.90;;;;;;4998275;28;20226;-82
2023/02/01 08:31:56;;;;;;;12.00;2.53;;;3.40;99.90;;;;;;5015710;28;20187;-82
2023/02/01 08:34:23;;;;;;;9.53;2.40;;;3.50;99.90;;;;;;4997985;28;20205;-80
2023/02/01 08:36:51;;;;;;;11.07;2.40;;;3.50;99.90;;;;;;4999984;28;20195;-82
2023/02/01 08:39:18;;;;;;;14.93;2.63;;;3.50;99.90;;;;;;4999846;28;20234;-82
2023/02/01 08:42:50;;;;;;;9.33;2.13;;;3.50;99.90;;;;;;4997726;28;20610;-82
2023/02/01 08:44:33;;;;;;;11.50;2.43;;;3.60;99.90;;;;;;4997515;28;20207;-79
2023/02/01 08:47:01;;;;;;;10.00;2.70;;;3.60;99.90;;;;;;4997700;28;20240;-82
2023/02/01 08:49:27;;;;;;;13.10;2.90;;;3.60;99.90;;;;;;5014331;28;20274;-81
2023/02/01 08:51:54;;;;;;;10.30;2.67;;;3.60;99.90;;;;;;4997557;28;20196;-81
2023/02/01 08:54:26;;;;;;;15.93;3.03;;;3.60;99.90;;;;;;4997611;28;20290;-81
2023/02/01 08:56:54;;;;;;;11.37;2.50;;;3.60;99.90;;;;;;4997654;28;20577;-80
2023/02/01 08:59:21;;;;;;;9.50;2.97;;;3.50;99.90;;;;;;4997258;28;20212;-80
2023/02/01 09:01:48;;;;;;;13.77;2.47;;;3.50;99.90;;;;;;4997454;28;20228;-82
2023/02/01 09:04:15;;;;;;;12.37;2.57;;;3.50;99.90;;;;;;4997381;28;20196;-82
2023/02/01 09:06:42;;;;;;;11.43;2.20;;;3.50;99.90;;;;;;4997298;28;20209;-70
2023/02/01 09:09:08;;;;;;;14.60;2.77;;;3.60;99.90;;;;;;5014777;28;20209;-77
2023/02/01 09:11:35;;;;;;;7.50;2.30;;;3.60;99.90;;;;;;5014882;28;20192;-69
2023/02/01 09:14:02;;;;;;;7.40;2.30;;;3.70;99.90;;;;;;4981357;28;20256;-69
2023/02/01 09:16:29;;;;;;;15.50;2.97;;;3.80;99.90;;;;;;4981309;28;20226;-70
2023/02/01 09:18:56;;;;;;;12.50;2.40;;;3.80;99.90;;;;;;4997081;28;20228;-75
2023/02/01 09:21:43;;;;;;;10.43;2.47;;;3.80;99.90;;;;;;4997055;28;20240;-78
2023/02/01 09:24:13;;;;;;;8.10;2.33;;;3.90;99.90;;;;;;4996881;28;20201;-76
2023/02/01 09:26:40;;;;;;;10.27;2.60;;;3.90;99.90;;;;;;4996960;28;20197;-78
2023/02/01 09:29:10;;;;;;;7.50;2.10;;;3.90;99.90;;;;;;4980389;28;20287;-70
2023/02/01 09:31:37;;;;;;;10.10;2.30;;;4.00;99.90;;;;;;5014386;28;20192;-82
2023/02/01 09:34:09;;;;;;;12.97;2.70;;;4.00;99.90;;;;;;5014483;28;20196;-71
2023/02/01 09:36:36;;;;;;;8.93;2.70;;;4.00;99.90;;;;;;5014349;28;20201;-81
2023/02/01 09:39:03;;;;;;;10.60;2.67;;;4.10;99.90;;;;;;4996886;28;20224;-83
2023/02/01 09:41:41;;;;;;;9.27;2.40;;;4.10;99.90;;;;;;5014490;28;20207;-80
2023/02/01 09:44:23;;;;;;;13.73;2.87;;;4.10;99.90;;;;;;5014340;28;20267;-83
2023/02/01 09:46:56;;;;;;;12.40;2.80;;;4.10;99.90;;;;;;5012814;28;20262;-80
2023/02/01 09:49:31;;;;;;;12.23;2.50;;;4.10;99.90;;;;;;5013619;28;20202;-76
2023/02/01 09:52:01;;;;;;;10.97;2.50;;;4.10;99.90;;;;;;5013078;28;20222;-79
2023/02/01 09:54:46;;;;;;;10.27;2.53;;;4.20;99.90;;;;;;5012671;28;20308;-82
2023/02/01 09:57:21;;;;;;;11.33;2.67;;;4.20;99.90;;;;;;5012400;28;20205;-78
2023/02/01 09:59:52;;;;;;;15.37;2.53;;;4.30;99.90;;;;;;5012491;28;20209;-78
2023/02/01 10:02:25;;;;;;;6.63;2.57;;;4.30;99.90;;;;;;5012586;28;20208;-77
2023/02/01 10:04:57;;;;;;;11.13;2.37;;;4.30;99.90;;;;;;5012491;28;20716;-83
2023/02/01 10:07:39;;;;;;;8.83;2.50;;;4.40;99.90;;;;;;5012357;28;20310;-82
2023/02/01 10:10:10;;;;;;;8.30;2.50;;;4.40;99.90;;;;;;5014058;28;20198;-79
2023/02/01 10:13:06;;;;;;;10.70;2.60;;;4.60;99.90;;;;;;5013909;28;20198;-80
2023/02/01 10:16:02;;;;;;;9.47;2.40;;;4.60;99.90;;;;;;5012501;28;20214;-82
2023/02/01 10:18:54;;;;;;;9.33;2.30;;;4.60;99.90;;;;;;5012416;28;20260;-82
2023/02/01 10:21:48;;;;;;;6.60;2.77;;;4.70;99.90;;;;;;5012348;28;20193;-83
2023/02/01 10:24:39;;;;;;;13.43;2.77;;;4.70;99.90;;;;;;5012175;28;20541;-79
2023/02/01 10:27:22;;;;;;;10.50;2.60;;;4.80;99.90;;;;;;5012165;28;20204;-83
2023/02/01 10:29:58;;;;;;;12.33;2.90;;;4.70;99.90;;;;;;5012603;28;20248;-82
2023/02/01 10:32:31;;;;;;;11.47;3.10;;;4.70;99.90;;;;;;5012138;28;20196;-84
2023/02/01 10:35:21;;;;;;;9.30;2.30;;;4.70;99.90;;;;;;5012144;28;20203;-78
2023/02/01 10:37:47;;;;;;;9.67;2.50;;;4.70;99.90;;;;;;5011907;28;20206;-81
2023/02/01 10:40:25;;;;;;;11.00;2.67;;;4.70;99.90;;;;;;5010964;28;20202;-80
2023/02/01 10:43:02;;;;;;;9.67;2.50;;;4.60;99.90;;;;;;5011877;28;20303;-80
2023/02/01 10:45:32;;;;;;;14.93;2.80;;;4.60;99.90;;;;;;5011616;28;20241;-72
2023/02/01 10:48:02;;;;;;;12.90;3.00;;;4.50;99.90;;;;;;5011994;28;20196;-77
2023/02/01 10:50:55;;;;;;;10.50;2.73;;;4.60;99.90;;;;;;4995462;28;20204;-74
2023/02/01 10:53:50;;;;;;;11.47;2.90;;;4.60;99.90;;;;;;5011655;28;20673;-81
2023/02/01 10:56:25;;;;;;;7.80;2.93;;;4.60;99.90;;;;;;5011911;28;20208;-76
2023/02/01 10:59:03;;;;;;;12.73;3.17;;;4.60;99.90;;;;;;5011622;28;20220;-82
2023/02/01 11:01:44;;;;;;;13.80;3.43;;;4.50;99.90;;;;;;5011456;28;20216;-81
2023/02/01 11:04:18;;;;;;;9.80;2.90;;;4.50;99.90;;;;;;5011498;28;20291;-78
2023/02/01 11:06:52;;;;;;;12.83;3.27;;;4.40;99.90;;;;;;5013074;28;20589;-82
2023/02/01 11:09:25;;;;;;;17.50;3.50;;;4.40;99.90;;;;;;5011529;28;20204;-78
2023/02/01 11:11:53;;;;;;;14.13;3.03;;;4.30;99.90;;;;;;5011692;28;20196;-78
2023/02/01 11:14:35;;;;;;;12.53;3.00;;;4.40;99.90;;;;;;5011474;28;20648;-79
2023/02/01 11:17:17;;;;;;;13.93;3.47;;;4.40;99.90;;;;;;5012716;28;20220;-79
2023/02/01 11:19:45;;;;;;;11.33;2.60;;;4.60;99.90;;;;;;5012669;28;20283;-79
2023/02/01 11:22:13;;;;;;;10.73;2.70;;;4.70;99.90;;;;;;5011295;28;20208;-80
2023/02/01 11:24:45;;;;;;;8.20;2.87;;;4.80;99.90;;;;;;5011151;28;20203;-77
2023/02/01 11:27:19;;;;;;;8.60;2.90;;;4.90;99.90;;;;;;5011343;28;20220;-78
2023/02/01 11:30:01;;;;;;;9.93;3.17;;;4.90;99.90;;;;;;5011272;28;20198;-76
2023/02/01 11:32:29;;;;;;;11.50;3.03;;;5.00;99.90;;;;;;5011608;28;20199;-75
2023/02/01 11:35:03;;;;;;;8.30;2.77;;;5.10;99.90;;;;;;5011275;28;20188;-75
2023/02/01 11:37:32;;;;;;;11.80;2.87;;;5.10;99.90;;;;;;5028052;28;20225;-77
2023/02/01 11:40:02;;;;;;;10.77;2.70;;;5.20;99.90;;;;;;5012447;28;20235;-80
2023/02/01 11:42:29;;;;;;;10.77;2.80;;;5.10;99.90;;;;;;5011106;28;20916;-80
2023/02/01 11:45:24;;;;;;;11.60;2.80;;;5.00;99.90;;;;;;5012479;28;20230;-80
2023/02/01 11:47:57;;;;;;;11.17;3.00;;;4.90;99.90;;;;;;4994772;28;20713;-77
2023/02/01 11:50:39;;;;;;;10.93;2.83;;;4.90;99.90;;;;;;4994722;28;20204;-72
2023/02/01 11:53:24;;;;;;;8.60;2.57;;;4.90;99.90;;;;;;5016495;28;20256;-81
2023/02/01 11:56:25;;;;;;;12.07;3.10;;;4.80;99.90;;;;;;4998589;28;20204;-80
2023/02/01 11:59:20;;;;;;;14.20;3.30;;;4.80;99.90;;;;;;4998432;28;20224;-79
2023/02/01 12:02:35;;;;;;;13.57;3.07;;;4.90;99.90;;;;;;4998555;28;20197;-79
2023/02/01 12:05:18;;;;;;;13.43;3.03;;;5.10;99.90;;;;;;4920235;29;20207;-83
2023/02/01 12:07:47;;;;;;;13.87;3.27;;;5.40;99.90;;;;;;4936485;29;20211;-79
2023/02/01 12:10:46;;;;;;;13.13;3.20;;;5.40;99.90;;;;;;4920396;29;20576;-77
2023/02/01 12:13:25;;;;;;;9.83;2.87;;;5.40;99.90;;;;;;4920367;29;20213;-80
2023/02/01 12:16:10;;;;;;;11.87;2.93;;;5.40;99.90;;;;;;4919955;29;20200;-79
2023/02/01 12:18:57;;;;;;;9.47;3.00;;;5.40;99.90;;;;;;4936204;29;20608;-86
2023/02/01 12:22:01;;;;;;;12.07;3.27;;;5.40;99.90;;;;;;4920047;29;20207;-77
2023/02/01 12:24:45;;;;;;;14.43;3.30;;;5.20;99.90;;;;;;4920060;29;20208;-83
2023/02/01 12:27:24;;;;;;;13.53;2.97;;;5.10;99.90;;;;;;4920465;29;20210;-80
2023/02/01 12:30:20;;;;;;;18.90;3.37;;;5.00;99.90;;;;;;4904511;29;20216;-80
2023/02/01 12:33:02;;;;;;;12.27;3.37;;;5.00;99.90;;;;;;4920426;29;20210;-80
2023/02/01 12:35:47;;;;;;;14.27;3.20;;;4.80;99.90;;;;;;4935554;29;20225;-81
2023/02/01 12:38:34;;;;;;;11.23;3.40;;;4.80;99.90;;;;;;4919822;29;20223;-76
2023/02/01 12:41:13;;;;;;;12.77;3.83;;;4.80;99.90;;;;;;4952769;28;20201;-80
2023/02/01 12:43:49;;;;;;;10.33;3.70;;;4.70;99.90;;;;;;4997756;28;20219;-70
2023/02/01 12:46:32;;;;;;;16.73;3.80;;;4.70;99.90;;;;;;5015188;28;20342;-87
2023/02/01 12:49:06;;;;;;;15.03;3.60;;;4.70;99.90;;;;;;4997980;28;20196;-83
2023/02/01 12:51:37;;;;;;;17.93;3.80;;;4.80;99.90;;;;;;5015207;28;20215;-70
2023/02/01 12:54:42;;;;;;;14.63;4.07;;;4.70;99.90;;;;;;4997416;28;20204;-81
2023/02/01 12:57:18;;;;;;;15.43;4.13;;;4.60;99.90;;;;;;4981571;28;20200;-82
2023/02/01 13:00:00;;;;;;;13.43;4.17;;;4.60;99.90;;;;;;5015348;28;20230;-81
2023/02/01 13:02:48;;;;;;;17.63;4.40;;;4.70;99.90;;;;;;4997088;28;20291;-80
2023/02/01 13:05:20;;;;;;;13.77;4.00;;;4.70;99.90;;;;;;4997276;28;20198;-79
2023/02/01 13:07:59;;;;;;;12.27;3.60;;;4.70;99.90;;;;;;4997330;28;20197;-80
2023/02/01 13:10:38;;;;;;;13.70;3.90;;;4.80;99.90;;;;;;5014850;28;20715;-69
2023/02/01 13:13:17;;;;;;;18.23;4.40;;;4.90;99.90;;;;;;4997314;28;20202;-73
2023/02/01 13:15:58;;;;;;;18.00;4.00;;;4.90;99.90;;;;;;5014845;28;20198;-76
2023/02/01 13:18:33;;;;;;;19.80;4.40;;;4.90;99.90;;;;;;5014906;28;20223;-77
2023/02/01 13:21:12;;;;;;;14.80;3.70;;;4.90;99.90;;;;;;4997245;28;20208;-72
2023/02/01 13:23:42;;;;;;;11.63;3.90;;;4.90;99.90;;;;;;4996816;28;20570;-70
2023/02/01 13:26:10;;;;;;;13.73;3.77;;;5.00;99.90;;;;;;4997209;28;20197;-70
2023/02/01 13:28:55;;;;;;;16.10;4.33;;;5.10;99.90;;;;;;4996740;28;20201;-74
2023/02/01 13:31:50;;;;;;;17.60;4.10;;;5.10;99.90;;;;;;4996784;28;20567;-75
2023/02/01 13:34:53;;;;;;;15.30;3.63;;;5.00;99.90;;;;;;4996891;28;20210;-72
2023/02/01 13:37:56;;;;;;;13.50;5.00;;;5.00;99.90;;;;;;5014125;28;20504;-77
2023/02/01 13:40:51;;;;;;;14.90;4.37;;;4.90;99.90;;;;;;4934159;29;20226;-74
2023/02/01 13:43:27;;;;;;;14.03;4.10;;;4.80;99.90;;;;;;4919071;29;20211;-75